ePrivacy and GPDR Cookie Consent by Cookie Consent
EmailTwitter


Observations de surface / Royaume-Uni / EGLL (03772)

Régions: Québec | Canada | États-Unis | Europe | France | UK | Ailleurs
Station
Affichage
Infos & localisation pour EGLL (03772) | Aide pour décoder les METARs

Observations prises le 2021-05-18 à 17H50 UTC à LONDON/HEATHROW, UK (EGLL)

Etat du ciel: quelques nuages.

Température: 12.0 Celsius

Point de rosée: 9.0 Celsius

Humidité relative: 82%

Vents: Sud-ouest à 15 km/h ou 8 noeuds.

Pression au niveau moyen de la mer: 101.40 kilopascals.

Visibilité horizontale: 6.21 milles terrestres ou 9.94 kilomètres.

Observation METAR:

EGLL 181750Z AUTO 22008KT 9999 FEW018/// //////CB 12/09 Q1014 RESHRA NOSIG=